createdAt,value
2023-03-27T00:00:26.429Z,102076.05
2023-03-27T00:03:38.814Z,102079.86
2023-03-27T00:06:50.213Z,102086.52
2023-03-27T00:10:02.260Z,102092.30
2023-03-27T00:13:04.344Z,102096.95
2023-03-27T00:16:15.123Z,102100.80
2023-03-27T00:19:25.940Z,102106.23
2023-03-27T00:22:37.277Z,102106.64
2023-03-27T00:25:49.259Z,102105.65
2023-03-27T00:29:00.470Z,102107.80
2023-03-27T00:32:11.161Z,102112.58
2023-03-27T00:35:23.075Z,102115.80
2023-03-27T00:38:34.491Z,102120.56
2023-03-27T00:41:44.704Z,102120.91
2023-03-27T00:44:55.734Z,102127.13
2023-03-27T00:48:09.483Z,102130.18
2023-03-27T00:51:22.422Z,102131.41
2023-03-27T00:54:36.834Z,102136.30
2023-03-27T00:57:50.628Z,102140.19
2023-03-27T01:01:01.718Z,102147.17
2023-03-27T01:04:13.200Z,102150.20
2023-03-27T01:07:25.263Z,102152.48
2023-03-27T01:11:15.085Z,102153.73
2023-03-27T01:14:32.009Z,102151.20
2023-03-27T01:17:48.830Z,102152.39
2023-03-27T01:21:10.590Z,102150.55
2023-03-27T01:24:35.168Z,102154.81
2023-03-27T01:27:58.878Z,102158.09
2023-03-27T01:31:51.043Z,102160.20
2023-03-27T01:35:22.060Z,102160.34
2023-03-27T01:38:52.988Z,102160.23
2023-03-27T01:42:10.499Z,102164.29
2023-03-27T01:45:23.452Z,102167.30
2023-03-27T01:48:38.082Z,102169.27
2023-03-27T01:51:51.894Z,102174.42
2023-03-27T01:55:05.644Z,102179.52
2023-03-27T01:58:18.846Z,102180.92
2023-03-27T02:01:33.028Z,102180.17
2023-03-27T02:04:47.027Z,102179.46
2023-03-27T02:08:00.571Z,102174.95
2023-03-27T02:11:11.584Z,102175.98
2023-03-27T02:14:24.913Z,102176.16
2023-03-27T02:17:40.018Z,102174.47
2023-03-27T02:20:43.342Z,102172.53
2023-03-27T02:23:54.435Z,102171.16
2023-03-27T02:27:22.538Z,102172.40
2023-03-27T02:30:31.554Z,102171.14
2023-03-27T02:33:46.816Z,102170.43
2023-03-27T02:37:02.567Z,102167.98
2023-03-27T02:40:40.097Z,102165.39
2023-03-27T02:43:55.195Z,102168.38
2023-03-27T02:47:09.505Z,102173.62
2023-03-27T02:50:23.020Z,102177.29
2023-03-27T02:53:38.534Z,102176.77
2023-03-27T02:56:53.070Z,102176.13
2023-03-27T03:00:07.415Z,102178.41
2023-03-27T03:03:15.601Z,102182.20
2023-03-27T03:06:30.204Z,102177.98
2023-03-27T03:09:41.824Z,102175.61
2023-03-27T03:12:53.005Z,102178.33
2023-03-27T03:16:03.936Z,102180.00
2023-03-27T03:19:15.599Z,102179.80
2023-03-27T03:22:26.557Z,102184.25
2023-03-27T03:25:37.342Z,102183.92
2023-03-27T03:29:00.553Z,102184.02
2023-03-27T03:32:12.989Z,102183.28
2023-03-27T03:35:23.877Z,102187.45
2023-03-27T03:38:38.959Z,102190.95
2023-03-27T03:41:50.445Z,102189.17
2023-03-27T03:45:01.556Z,102193.23
2023-03-27T03:48:12.983Z,102194.25
2023-03-27T03:51:23.704Z,102193.06
2023-03-27T03:54:34.464Z,102197.29
2023-03-27T03:57:48.580Z,102198.10
2023-03-27T04:00:59.503Z,102197.54
2023-03-27T04:04:13.950Z,102201.28
2023-03-27T04:07:35.726Z,102207.77
2023-03-27T04:10:56.768Z,102210.91
2023-03-27T04:14:26.600Z,102212.17
2023-03-27T04:17:38.636Z,102217.83
2023-03-27T04:20:50.572Z,102217.88
2023-03-27T04:24:39.313Z,102220.42
2023-03-27T04:27:51.470Z,102225.92
2023-03-27T04:31:06.577Z,102231.80
2023-03-27T04:34:33.425Z,102239.63
2023-03-27T04:37:50.433Z,102242.00
2023-03-27T04:41:09.128Z,102234.81
2023-03-27T04:44:20.190Z,102233.15
2023-03-27T04:47:32.082Z,102229.83
2023-03-27T04:50:44.302Z,102230.15
2023-03-27T04:53:56.520Z,102229.27
2023-03-27T04:57:10.187Z,102225.87
2023-03-27T05:00:24.172Z,102223.52
2023-03-27T05:03:35.954Z,102226.03
2023-03-27T05:06:47.283Z,102227.50
2023-03-27T05:09:58.608Z,102226.48
2023-03-27T05:13:10.038Z,102226.59
2023-03-27T05:16:21.250Z,102225.07
2023-03-27T05:19:32.054Z,102223.59
2023-03-27T05:22:43.487Z,102229.14
2023-03-27T05:26:07.547Z,102231.95
2023-03-27T05:29:30.502Z,102235.40
2023-03-27T05:33:00.172Z,102232.63
2023-03-27T05:36:12.234Z,102235.88
2023-03-27T05:39:25.612Z,102234.70
2023-03-27T05:42:36.822Z,102236.08
2023-03-27T05:45:47.703Z,102238.09
2023-03-27T05:48:59.860Z,102234.88
2023-03-27T05:52:10.879Z,102234.95
2023-03-27T05:55:21.792Z,102237.41
2023-03-27T05:58:33.152Z,102232.86
2023-03-27T06:01:43.901Z,102231.10
2023-03-27T06:04:55.038Z,102231.21
2023-03-27T06:08:11.171Z,102237.79
2023-03-27T06:11:22.352Z,102239.25
2023-03-27T06:14:33.743Z,102241.37
2023-03-27T06:17:45.341Z,102245.69
2023-03-27T06:20:57.148Z,102246.15
2023-03-27T06:24:11.396Z,102246.89
2023-03-27T06:27:24.666Z,102243.79
2023-03-27T06:30:38.009Z,102245.05
2023-03-27T06:33:47.470Z,102250.87
2023-03-27T06:37:00.090Z,102253.44
2023-03-27T06:40:20.729Z,102258.76
2023-03-27T06:43:31.931Z,102259.17
2023-03-27T06:46:45.739Z,102261.05
2023-03-27T06:50:12.082Z,102267.80
2023-03-27T06:53:27.995Z,102268.02
2023-03-27T06:56:40.067Z,102270.67
2023-03-27T07:00:02.314Z,102270.25
2023-03-27T07:03:14.566Z,102270.95
2023-03-27T07:06:49.078Z,102272.74
2023-03-27T07:10:13.002Z,102266.57
2023-03-27T07:13:17.212Z,102264.17
2023-03-27T07:16:28.328Z,102258.68
2023-03-27T07:19:39.284Z,102252.16
2023-03-27T07:22:43.835Z,102251.08
2023-03-27T07:25:58.410Z,102248.91
2023-03-27T07:29:11.157Z,102240.02
2023-03-27T07:32:09.578Z,102236.47
2023-03-27T07:35:05.367Z,102238.38
2023-03-27T07:38:25.533Z,102237.55
2023-03-27T07:41:36.355Z,102234.63
2023-03-27T07:44:52.803Z,102226.38
2023-03-27T07:47:44.605Z,102228.55
2023-03-27T07:50:36.141Z,102230.91
2023-03-27T07:53:33.620Z,102235.31
2023-03-27T07:56:35.308Z,102236.08
2023-03-27T07:59:56.545Z,102231.07
2023-03-27T08:02:52.682Z,102232.94
2023-03-27T08:05:43.630Z,102236.57
2023-03-27T08:08:35.275Z,102238.95
2023-03-27T08:11:30.579Z,102241.76
2023-03-27T08:14:21.734Z,102245.36
2023-03-27T08:17:16.256Z,102244.73
2023-03-27T08:20:12.638Z,102243.95
2023-03-27T08:23:07.314Z,102246.12
2023-03-27T08:26:29.795Z,102243.17
2023-03-27T08:29:21.711Z,102245.01
2023-03-27T08:32:11.977Z,102238.89
2023-03-27T08:35:03.919Z,102238.67
2023-03-27T08:37:54.436Z,102239.30
2023-03-27T08:41:03.927Z,102234.56
2023-03-27T08:44:04.604Z,102236.33
2023-03-27T08:46:57.650Z,102232.77
2023-03-27T08:49:52.135Z,102227.83
2023-03-27T08:52:48.181Z,102225.34
2023-03-27T08:55:46.690Z,102228.67
2023-03-27T08:58:55.638Z,102230.41
2023-03-27T09:01:55.984Z,102225.67
2023-03-27T09:04:50.150Z,102227.46
2023-03-27T09:07:48.242Z,102227.27
2023-03-27T09:11:01.508Z,102225.30
2023-03-27T09:13:59.286Z,102222.77
2023-03-27T09:16:51.148Z,102224.86
2023-03-27T09:19:54.454Z,102222.70
2023-03-27T09:22:52.975Z,102216.52
2023-03-27T09:26:14.932Z,102216.81
2023-03-27T09:29:30.183Z,102218.17
2023-03-27T09:32:48.277Z,102222.46
2023-03-27T09:35:39.141Z,102225.20
2023-03-27T09:38:33.524Z,102218.20
2023-03-27T09:41:26.611Z,102223.02
2023-03-27T09:44:21.125Z,102224.63
2023-03-27T09:47:14.411Z,102221.20
2023-03-27T09:50:17.814Z,102215.67
2023-03-27T09:53:19.285Z,102208.98
2023-03-27T09:56:16.505Z,102209.52
2023-03-27T09:59:26.313Z,102208.83
2023-03-27T10:02:25.240Z,102206.24
2023-03-27T10:05:19.310Z,102200.02
2023-03-27T10:08:38.501Z,102197.14
2023-03-27T10:11:34.593Z,102196.10
2023-03-27T10:14:37.514Z,102188.94
2023-03-27T10:17:29.431Z,102189.95
2023-03-27T10:20:27.591Z,102192.66
2023-03-27T10:23:25.513Z,102188.91
2023-03-27T10:26:18.961Z,102187.41
2023-03-27T10:29:22.180Z,102188.72
2023-03-27T10:32:13.231Z,102185.73
2023-03-27T10:35:24.439Z,102184.60
2023-03-27T10:38:45.324Z,102179.99
2023-03-27T10:41:48.938Z,102171.25
2023-03-27T10:44:42.364Z,102167.77
2023-03-27T10:47:34.112Z,102163.16
2023-03-27T10:50:29.457Z,102162.41
2023-03-27T10:53:23.342Z,102162.84
2023-03-27T10:56:27.988Z,102157.73
2023-03-27T10:59:30.945Z,102152.15
2023-03-27T11:02:32.656Z,102155.65
2023-03-27T11:05:25.497Z,102151.02
2023-03-27T11:08:19.881Z,102142.61
2023-03-27T11:11:14.734Z,102143.70
2023-03-27T11:14:13.553Z,102143.42
2023-03-27T11:17:06.720Z,102137.26
2023-03-27T11:20:27.306Z,102139.78
2023-03-27T11:23:38.679Z,102139.44
2023-03-27T11:26:51.210Z,102141.44
2023-03-27T11:29:48.505Z,102135.63
2023-03-27T11:32:42.135Z,102139.02
2023-03-27T11:35:37.788Z,102145.20
2023-03-27T11:38:52.579Z,102149.81
2023-03-27T11:41:42.932Z,102159.94
2023-03-27T11:44:33.476Z,102159.55
2023-03-27T11:47:57.080Z,102159.08
2023-03-27T11:50:54.480Z,102152.86
2023-03-27T11:53:55.043Z,102154.98
2023-03-27T11:57:12.206Z,102160.95
2023-03-27T12:00:36.505Z,102160.66
2023-03-27T12:03:36.951Z,102164.23
2023-03-27T12:06:31.801Z,102164.06
2023-03-27T12:09:44.883Z,102166.03
2023-03-27T12:13:18.513Z,102168.32
2023-03-27T12:16:17.734Z,102166.17
2023-03-27T12:19:39.221Z,102156.41
2023-03-27T12:22:45.748Z,102155.08
2023-03-27T12:26:05.304Z,102143.50
2023-03-27T12:29:24.432Z,102138.92
2023-03-27T12:32:39.385Z,102140.77
2023-03-27T12:35:33.295Z,102135.01
2023-03-27T12:38:28.384Z,102125.57
2023-03-27T12:41:24.171Z,102128.98
2023-03-27T12:44:55.280Z,102135.23
2023-03-27T12:48:05.197Z,102131.56
2023-03-27T12:50:58.868Z,102126.47
2023-03-27T12:53:52.716Z,102121.77
2023-03-27T12:56:44.244Z,102115.30
2023-03-27T12:59:36.857Z,102113.21
2023-03-27T13:02:44.163Z,102106.95
2023-03-27T13:05:46.601Z,102103.89
2023-03-27T13:08:57.468Z,102102.30
2023-03-27T13:12:05.245Z,102106.14
2023-03-27T13:15:13.714Z,102108.97
2023-03-27T13:18:16.075Z,102105.93
2023-03-27T13:21:15.120Z,102102.37
2023-03-27T13:24:15.516Z,102106.83
2023-03-27T13:27:18.285Z,102102.70
2023-03-27T13:30:30.760Z,102101.29
2023-03-27T13:33:26.535Z,102096.77
2023-03-27T13:36:20.882Z,102083.11
2023-03-27T13:39:15.453Z,102081.48
2023-03-27T13:42:10.705Z,102082.34
2023-03-27T13:45:18.204Z,102079.04
2023-03-27T13:48:42.264Z,102074.77
2023-03-27T13:51:50.381Z,102064.42
2023-03-27T13:54:49.625Z,102057.48
2023-03-27T13:57:55.692Z,102060.13
2023-03-27T14:00:59.838Z,102056.43
2023-03-27T14:04:03.595Z,102048.93
2023-03-27T14:07:19.563Z,102050.25
2023-03-27T14:10:32.065Z,102046.85
2023-03-27T14:13:32.263Z,102039.02
2023-03-27T14:16:39.092Z,102033.77
2023-03-27T14:19:47.947Z,102034.40
2023-03-27T14:22:47.728Z,102039.67
2023-03-27T14:25:45.441Z,102033.38
2023-03-27T14:29:01.241Z,102027.60
2023-03-27T14:32:04.419Z,102025.77
2023-03-27T14:35:04.985Z,102025.59
2023-03-27T14:37:57.411Z,102024.52
2023-03-27T14:41:00.841Z,102019.61
2023-03-27T14:44:25.016Z,102013.87
2023-03-27T14:47:17.746Z,102002.26
2023-03-27T14:50:16.264Z,102007.78
2023-03-27T14:53:10.200Z,102010.41
2023-03-27T14:56:23.635Z,102006.60
2023-03-27T14:59:23.463Z,101999.38
2023-03-27T15:02:21.671Z,102004.51
2023-03-27T15:05:14.029Z,102001.29
2023-03-27T15:08:15.016Z,101997.17
2023-03-27T15:11:26.768Z,101988.60
2023-03-27T15:14:30.523Z,101985.88
2023-03-27T15:17:24.159Z,101975.80
2023-03-27T15:20:28.202Z,101974.77
2023-03-27T15:23:22.538Z,101975.20
2023-03-27T15:26:16.222Z,101971.92
2023-03-27T15:29:09.053Z,101969.21
2023-03-27T15:32:08.978Z,101970.76
2023-03-27T15:35:08.529Z,101967.09
2023-03-27T15:38:02.752Z,101961.79
2023-03-27T15:41:00.780Z,101961.73
2023-03-27T15:43:52.900Z,101960.89
2023-03-27T15:46:53.216Z,101950.75
2023-03-27T15:49:44.501Z,101948.59
2023-03-27T15:52:35.182Z,101945.71
2023-03-27T15:55:43.120Z,101945.52
2023-03-27T15:58:41.463Z,101947.93
2023-03-27T16:01:33.103Z,101944.83
2023-03-27T16:04:26.627Z,101941.50
2023-03-27T16:07:18.644Z,101938.22
2023-03-27T16:10:30.000Z,101932.95
2023-03-27T16:13:29.859Z,101923.42
2023-03-27T16:16:22.767Z,101918.75
2023-03-27T16:19:14.303Z,101910.98
2023-03-27T16:22:05.175Z,101905.51
2023-03-27T16:25:02.340Z,101903.23
2023-03-27T16:27:54.923Z,101904.88
2023-03-27T16:30:46.006Z,101902.61
2023-03-27T16:33:43.037Z,101896.40
2023-03-27T16:36:33.710Z,101897.63
2023-03-27T16:39:28.253Z,101894.33
2023-03-27T16:42:19.947Z,101895.80
2023-03-27T16:45:19.824Z,101894.16
2023-03-27T16:48:20.508Z,101887.67
2023-03-27T16:51:11.243Z,101888.24
2023-03-27T16:54:05.144Z,101885.48
2023-03-27T16:57:09.109Z,101883.42
2023-03-27T16:59:59.871Z,101886.80
2023-03-27T17:03:10.141Z,101886.64
2023-03-27T17:06:12.852Z,101884.71
2023-03-27T17:09:03.096Z,101888.90
2023-03-27T17:11:57.509Z,101887.67
2023-03-27T17:14:59.302Z,101883.55
2023-03-27T17:18:07.387Z,101883.14
2023-03-27T17:21:18.707Z,101880.06
2023-03-27T17:24:29.421Z,101882.40
2023-03-27T17:27:30.051Z,101880.32
2023-03-27T17:30:52.755Z,101885.24
2023-03-27T17:33:51.570Z,101893.68
2023-03-27T17:36:54.379Z,101894.41
2023-03-27T17:39:56.304Z,101892.34
2023-03-27T17:43:07.089Z,101890.42
2023-03-27T17:46:17.852Z,101883.23
2023-03-27T17:49:29.945Z,101879.20
2023-03-27T17:52:40.572Z,101877.17
2023-03-27T17:55:42.388Z,101876.59
2023-03-27T17:58:56.763Z,101868.31
2023-03-27T18:01:52.690Z,101867.59
2023-03-27T18:04:43.356Z,101864.91
2023-03-27T18:07:54.451Z,101864.91
2023-03-27T18:11:08.489Z,101856.48
2023-03-27T18:14:19.782Z,101854.14
2023-03-27T18:17:30.745Z,101852.98
2023-03-27T18:20:41.658Z,101856.34
2023-03-27T18:23:46.121Z,101849.04
2023-03-27T18:26:55.041Z,101845.10
2023-03-27T18:30:09.470Z,101845.70
2023-03-27T18:32:59.749Z,101848.27
2023-03-27T18:36:12.217Z,101845.51
2023-03-27T18:39:23.571Z,101837.89
2023-03-27T18:42:34.317Z,101833.48
2023-03-27T18:45:45.129Z,101827.56
2023-03-27T18:48:57.219Z,101832.19
2023-03-27T18:52:07.936Z,101828.28
2023-03-27T18:55:18.905Z,101830.80
2023-03-27T18:58:29.081Z,101828.73
2023-03-27T19:01:40.114Z,101828.77
2023-03-27T19:04:51.306Z,101823.79
2023-03-27T19:07:50.954Z,101820.48
2023-03-27T19:11:01.862Z,101816.14
2023-03-27T19:14:11.695Z,101808.27
2023-03-27T19:17:28.928Z,101800.95
2023-03-27T19:20:56.389Z,101794.27
2023-03-27T19:24:07.891Z,101787.02
2023-03-27T19:27:24.222Z,101777.41
2023-03-27T19:30:34.912Z,101774.36
2023-03-27T19:33:45.950Z,101766.91
2023-03-27T19:36:56.718Z,101768.08
2023-03-27T19:40:09.668Z,101764.55
2023-03-27T19:43:21.650Z,101764.22
2023-03-27T19:46:32.619Z,101763.27
2023-03-27T19:49:43.714Z,101764.86
2023-03-27T19:53:07.496Z,101758.02
2023-03-27T19:56:07.484Z,101757.89
2023-03-27T19:59:29.809Z,101752.79
2023-03-27T20:02:44.109Z,101746.75
2023-03-27T20:05:49.822Z,101743.34
2023-03-27T20:08:53.966Z,101737.81
2023-03-27T20:12:05.111Z,101721.65
2023-03-27T20:15:16.268Z,101723.09
2023-03-27T20:18:32.795Z,101715.89
2023-03-27T20:21:45.456Z,101711.02
2023-03-27T20:24:49.638Z,101708.33
2023-03-27T20:28:03.323Z,101706.08
2023-03-27T20:31:17.488Z,101700.34
2023-03-27T20:34:19.642Z,101696.63
2023-03-27T20:37:27.375Z,101694.95
2023-03-27T20:40:52.411Z,101693.08
2023-03-27T20:44:04.591Z,101694.52
2023-03-27T20:47:19.354Z,101688.25
2023-03-27T20:50:31.807Z,101680.36
2023-03-27T20:53:43.231Z,101679.95
2023-03-27T20:56:52.462Z,101674.79
2023-03-27T21:00:24.512Z,101673.58
2023-03-27T21:03:37.023Z,101669.69
2023-03-27T21:06:46.310Z,101667.01
2023-03-27T21:09:57.015Z,101666.72
2023-03-27T21:13:02.471Z,101663.81
2023-03-27T21:16:13.321Z,101656.69
2023-03-27T21:19:24.413Z,101656.98
2023-03-27T21:22:35.136Z,101652.58
2023-03-27T21:25:46.397Z,101648.72
2023-03-27T21:28:48.140Z,101643.66
2023-03-27T21:31:51.838Z,101633.84
2023-03-27T21:35:02.576Z,101628.06
2023-03-27T21:38:13.830Z,101623.55
2023-03-27T21:41:31.088Z,101618.61
2023-03-27T21:44:40.554Z,101612.65
2023-03-27T21:47:47.277Z,101610.13
2023-03-27T21:51:01.454Z,101605.47
2023-03-27T21:54:02.709Z,101610.66
2023-03-27T21:57:13.565Z,101602.20
2023-03-27T22:00:26.091Z,101599.94
2023-03-27T22:03:36.922Z,101593.29
2023-03-27T22:06:48.019Z,101586.29
2023-03-27T22:09:59.194Z,101579.44
2023-03-27T22:12:50.065Z,101575.42
2023-03-27T22:16:01.408Z,101566.42
2023-03-27T22:19:03.443Z,101564.20
2023-03-27T22:22:14.672Z,101559.98
2023-03-27T22:25:25.613Z,101554.88
2023-03-27T22:28:32.703Z,101547.81
2023-03-27T22:31:34.718Z,101540.04
2023-03-27T22:35:26.386Z,101535.09
2023-03-27T22:38:31.841Z,101523.60
2023-03-27T22:41:45.408Z,101517.41
2023-03-27T22:44:45.604Z,101515.78
2023-03-27T22:47:56.628Z,101506.31
2023-03-27T22:50:59.970Z,101503.12
2023-03-27T22:54:05.355Z,101491.18
2023-03-27T22:57:06.709Z,101486.70
2023-03-27T23:00:18.414Z,101481.92
2023-03-27T23:03:29.901Z,101470.09
2023-03-27T23:06:49.973Z,101468.91
2023-03-27T23:10:00.981Z,101457.92
2023-03-27T23:13:08.438Z,101448.69
2023-03-27T23:16:24.340Z,101441.08
2023-03-27T23:19:38.098Z,101441.25
2023-03-27T23:22:47.738Z,101438.61
2023-03-27T23:26:11.872Z,101431.91
2023-03-27T23:29:06.036Z,101432.60
2023-03-27T23:32:17.613Z,101434.11
2023-03-27T23:35:14.114Z,101428.17
2023-03-27T23:38:28.964Z,101421.42
2023-03-27T23:41:40.752Z,101417.95
2023-03-27T23:44:54.188Z,101412.08
2023-03-27T23:48:22.299Z,101411.64
2023-03-27T23:51:33.641Z,101407.20
2023-03-27T23:54:47.334Z,101402.60
2023-03-27T23:58:00.255Z,101404.58
